Time;durP1;ratioP1;P1;durP2;ratioP2;P2;SDS_P1;SDS_P2;PMS_P1;PMS_P2;Temp;Humidity;BMP_temperature;BMP_pressure;BME280_temperature;BME280_humidity;BME280_pressure;Samples;Min_cycle;Max_cycle;Signal;HPM_P1;HPM_P2
2022/12/10 00:01:08;;;;;;;24.02;14.95;;;1.80;99.90;;;;;;4734204;28;10000465;-78
2022/12/10 00:03:34;;;;;;;24.35;15.02;;;1.80;99.90;;;;;;5084294;28;20643;-78
2022/12/10 00:06:01;;;;;;;20.55;13.65;;;1.80;99.90;;;;;;5074824;28;20039;-78
2022/12/10 00:08:27;;;;;;;22.90;14.75;;;1.80;99.90;;;;;;5084659;28;20110;-78
2022/12/10 00:10:53;;;;;;;21.98;14.60;;;1.80;99.90;;;;;;5087057;28;20489;-78
2022/12/10 00:13:18;;;;;;;24.77;15.45;;;1.70;99.90;;;;;;5079235;28;20081;-78
2022/12/10 00:15:44;;;;;;;24.48;15.38;;;1.80;99.90;;;;;;5079208;28;20023;-78
2022/12/10 00:18:09;;;;;;;23.30;15.02;;;1.80;99.90;;;;;;5082615;28;20044;-77
2022/12/10 00:20:36;;;;;;;24.27;15.93;;;1.70;99.90;;;;;;5086505;28;20016;-77
2022/12/10 00:23:02;;;;;;;25.40;16.48;;;1.70;99.90;;;;;;5079256;28;20016;-78
2022/12/10 00:25:28;;;;;;;25.23;15.80;;;1.70;99.90;;;;;;5083262;28;20032;-78
2022/12/10 00:27:53;;;;;;;24.30;15.85;;;1.70;99.90;;;;;;5082714;28;20042;-78
2022/12/10 00:30:19;;;;;;;27.25;16.35;;;1.70;99.90;;;;;;5080170;28;20169;-78
2022/12/10 00:32:45;;;;;;;25.60;15.60;;;1.70;99.90;;;;;;5076204;28;20091;-78
2022/12/10 00:35:10;;;;;;;29.70;17.55;;;1.70;99.90;;;;;;5081152;28;20059;-79
2022/12/10 00:37:36;;;;;;;25.27;16.52;;;1.80;99.90;;;;;;5084745;28;20088;-79
2022/12/10 00:40:02;;;;;;;27.15;15.88;;;1.70;99.90;;;;;;5084786;28;20723;-78
2022/12/10 00:42:27;;;;;;;25.00;16.27;;;1.70;99.90;;;;;;5073250;28;20033;-78
2022/12/10 00:44:53;;;;;;;26.83;16.40;;;1.70;99.90;;;;;;5080149;28;20048;-78
2022/12/10 00:47:18;;;;;;;28.75;16.77;;;1.70;99.90;;;;;;5083023;28;20031;-78
2022/12/10 00:49:44;;;;;;;25.02;16.05;;;1.70;99.90;;;;;;5090045;28;20039;-79
2022/12/10 00:52:10;;;;;;;25.20;16.38;;;1.70;99.90;;;;;;5081349;28;20035;-79
2022/12/10 00:54:35;;;;;;;25.48;16.35;;;1.70;99.90;;;;;;5079177;28;20367;-78
2022/12/10 00:57:01;;;;;;;27.45;16.98;;;1.70;99.90;;;;;;5088437;28;20730;-79
2022/12/10 00:59:26;;;;;;;25.48;16.85;;;1.70;99.90;;;;;;5080467;28;20296;-79
2022/12/10 01:01:52;;;;;;;26.65;17.25;;;1.70;99.90;;;;;;5080772;28;20028;-78
2022/12/10 01:04:18;;;;;;;25.50;16.33;;;1.70;99.90;;;;;;5075208;28;20020;-79
2022/12/10 01:06:52;;;;;;;26.73;17.27;;;1.60;99.90;;;;;;5084549;28;20019;-79
2022/12/10 01:09:21;;;;;;;23.02;15.95;;;1.60;99.90;;;;;;5073900;28;20031;-79
2022/12/10 01:11:48;;;;;;;25.33;16.73;;;1.70;99.90;;;;;;5079710;28;20031;-78
2022/12/10 01:14:17;;;;;;;26.15;16.63;;;1.70;99.90;;;;;;5072025;28;20028;-79
2022/12/10 01:16:43;;;;;;;25.35;16.33;;;1.70;99.90;;;;;;5078260;28;20505;-78
2022/12/10 01:19:09;;;;;;;24.52;16.52;;;1.70;99.90;;;;;;5077929;28;20036;-79
2022/12/10 01:21:35;;;;;;;27.67;16.60;;;1.70;99.90;;;;;;5081333;28;20039;-79
2022/12/10 01:24:01;;;;;;;28.38;16.85;;;1.60;99.90;;;;;;5070334;28;20025;-79
2022/12/10 01:26:30;;;;;;;25.80;17.30;;;1.70;99.90;;;;;;5073848;28;20603;-79
2022/12/10 01:28:56;;;;;;;25.20;16.88;;;1.60;99.90;;;;;;5081754;28;20377;-79
2022/12/10 01:31:25;;;;;;;25.75;17.15;;;1.60;99.90;;;;;;5085025;28;20101;-79
2022/12/10 01:33:51;;;;;;;28.27;17.65;;;1.60;99.90;;;;;;5078441;28;20487;-79
2022/12/10 01:36:26;;;;;;;28.73;17.95;;;1.60;99.90;;;;;;5083327;28;20024;-79
2022/12/10 01:38:52;;;;;;;29.73;17.05;;;1.60;99.90;;;;;;5085864;28;20024;-80
2022/12/10 01:41:33;;;;;;;27.80;18.05;;;1.60;99.90;;;;;;5081915;28;20032;-79
2022/12/10 01:44:08;;;;;;;26.02;16.50;;;1.60;99.90;;;;;;5035297;28;1131611;-79
2022/12/10 01:46:39;;;;;;;28.33;18.48;;;1.60;99.90;;;;;;5078817;28;20273;-80
2022/12/10 01:49:07;;;;;;;27.38;16.92;;;1.60;99.90;;;;;;5079144;28;20390;-79
2022/12/10 01:51:36;;;;;;;26.85;16.95;;;1.60;99.90;;;;;;5082336;28;20028;-80
2022/12/10 01:54:05;;;;;;;27.77;17.85;;;1.60;99.90;;;;;;5077964;28;20019;-80
2022/12/10 01:56:35;;;;;;;27.70;17.55;;;1.60;99.90;;;;;;5081599;28;20509;-79
2022/12/10 01:59:01;;;;;;;25.17;16.83;;;1.60;99.90;;;;;;5085094;28;20125;-79
2022/12/10 02:01:45;;;;;;;25.48;16.88;;;1.60;99.90;;;;;;5080191;28;20044;-79
2022/12/10 02:04:17;;;;;;;25.45;16.20;;;1.60;99.90;;;;;;5080166;28;20442;-79
2022/12/10 02:06:53;;;;;;;26.17;16.90;;;1.60;99.90;;;;;;5075302;28;20098;-79
2022/12/10 02:09:36;;;;;;;28.35;17.38;;;1.60;99.90;;;;;;5080768;28;20032;-79
2022/12/10 02:12:37;;;;;;;28.42;18.08;;;1.60;99.90;;;;;;5080192;28;20111;-79
2022/12/10 02:15:23;;;;;;;28.92;18.15;;;1.50;99.90;;;;;;4988291;28;20567;-79
2022/12/10 02:17:59;;;;;;;28.33;18.65;;;1.50;99.90;;;;;;5080433;28;20039;-79
2022/12/10 02:20:36;;;;;;;29.02;18.45;;;1.50;99.90;;;;;;5081373;28;20103;-79
2022/12/10 02:23:11;;;;;;;29.73;18.90;;;1.50;99.90;;;;;;5078123;28;20508;-80
2022/12/10 02:25:57;;;;;;;30.42;19.35;;;1.50;99.90;;;;;;5070037;28;20512;-78
2022/12/10 02:29:08;;;;;;;31.77;19.63;;;1.50;99.90;;;;;;5077153;28;20026;-80
2022/12/10 02:31:36;;;;;;;34.40;21.15;;;1.50;99.90;;;;;;5070542;28;20047;-79
2022/12/10 02:34:04;;;;;;;34.80;20.95;;;1.50;99.90;;;;;;5077920;28;20028;-80
2022/12/10 02:36:36;;;;;;;34.30;20.45;;;1.50;99.90;;;;;;5084857;28;20044;-80
2022/12/10 02:39:05;;;;;;;31.92;20.05;;;1.50;99.90;;;;;;5087764;28;20050;-80
2022/12/10 02:41:40;;;;;;;33.85;21.05;;;1.50;99.90;;;;;;5076365;28;20104;-79
2022/12/10 02:44:09;;;;;;;33.17;20.42;;;1.50;99.90;;;;;;5076972;28;20056;-80
2022/12/10 02:46:37;;;;;;;31.73;20.00;;;1.50;99.90;;;;;;5083781;28;20381;-80
2022/12/10 02:49:05;;;;;;;32.70;20.70;;;1.50;99.90;;;;;;5072727;28;20035;-80
2022/12/10 02:51:31;;;;;;;33.72;21.08;;;1.40;99.90;;;;;;5074761;28;20024;-80
2022/12/10 02:54:05;;;;;;;32.30;20.85;;;1.40;99.90;;;;;;5081708;28;20032;-79
2022/12/10 02:56:39;;;;;;;31.88;19.83;;;1.50;99.90;;;;;;5071905;28;20035;-80
2022/12/10 02:59:32;;;;;;;32.88;20.58;;;1.40;99.90;;;;;;5084312;28;20044;-80
2022/12/10 03:02:41;;;;;;;34.67;20.70;;;1.40;99.90;;;;;;5074107;28;20036;-80
2022/12/10 03:05:22;;;;;;;31.98;20.35;;;1.40;99.90;;;;;;5043368;28;20135;-79
2022/12/10 03:08:52;;;;;;;32.85;20.63;;;1.30;99.90;;;;;;5085072;28;20035;-79
2022/12/10 03:11:23;;;;;;;31.38;20.40;;;1.20;99.90;;;;;;5034531;28;20064;-79
2022/12/10 03:14:20;;;;;;;35.90;21.15;;;1.20;99.90;;;;;;5068414;28;20609;-79
2022/12/10 03:16:52;;;;;;;36.30;21.63;;;1.20;99.90;;;;;;5076956;28;20032;-79
2022/12/10 03:19:21;;;;;;;36.92;22.08;;;1.20;99.90;;;;;;5079673;28;20108;-79
2022/12/10 03:21:50;;;;;;;35.28;21.63;;;1.20;99.90;;;;;;5081779;28;20032;-79
2022/12/10 03:24:17;;;;;;;36.90;22.60;;;1.20;99.90;;;;;;5071564;28;20032;-79
2022/12/10 03:26:46;;;;;;;35.38;21.02;;;1.20;99.90;;;;;;5076594;28;20106;-80
2022/12/10 03:29:36;;;;;;;37.15;21.75;;;1.20;99.90;;;;;;5079092;28;20494;-80
2022/12/10 03:32:02;;;;;;;35.47;21.48;;;1.20;99.90;;;;;;5082274;28;20050;-79
2022/12/10 03:34:28;;;;;;;35.03;21.38;;;1.20;99.90;;;;;;5081580;28;20116;-79
2022/12/10 03:36:54;;;;;;;33.80;21.13;;;1.30;99.90;;;;;;5082270;28;20568;-80
2022/12/10 03:39:20;;;;;;;37.17;22.23;;;1.30;99.90;;;;;;5082168;28;20028;-80
2022/12/10 03:41:46;;;;;;;35.03;21.83;;;1.30;99.90;;;;;;5080524;28;20063;-79
2022/12/10 03:44:12;;;;;;;36.00;21.88;;;1.30;99.90;;;;;;5077798;28;20040;-79
2022/12/10 03:46:38;;;;;;;35.33;20.77;;;1.30;99.90;;;;;;5077559;28;20043;-79
2022/12/10 03:49:04;;;;;;;32.95;20.40;;;1.30;99.90;;;;;;5084587;28;20086;-80
2022/12/10 03:51:30;;;;;;;34.60;21.33;;;1.40;99.90;;;;;;5079042;28;20032;-79
2022/12/10 03:53:55;;;;;;;30.98;19.27;;;1.40;99.90;;;;;;5073988;28;20028;-79
2022/12/10 03:56:22;;;;;;;34.65;20.77;;;1.40;99.90;;;;;;5081658;28;20039;-80
2022/12/10 03:58:48;;;;;;;35.33;21.30;;;1.40;99.90;;;;;;5083956;28;20033;-79
2022/12/10 04:01:14;;;;;;;33.13;20.52;;;1.40;99.90;;;;;;5084101;28;20039;-80
2022/12/10 04:03:41;;;;;;;33.65;20.27;;;1.40;99.90;;;;;;5078725;28;20024;-80
2022/12/10 04:06:12;;;;;;;33.25;20.50;;;1.40;99.90;;;;;;5080536;28;20111;-80
2022/12/10 04:08:38;;;;;;;31.80;20.08;;;1.50;99.90;;;;;;5076104;28;20241;-80
2022/12/10 04:11:05;;;;;;;31.50;19.58;;;1.40;99.90;;;;;;5075882;28;20031;-80
2022/12/10 04:16:28;;;;;;;30.85;19.15;;;1.40;99.90;;;;;;5083213;28;20046;-80
2022/12/10 04:19:06;;;;;;;37.30;21.63;;;1.50;99.90;;;;;;5081216;28;20027;-80
2022/12/10 04:27:10;;;;;;;35.95;21.98;;;1.40;99.90;;;;;;5079703;28;20039;-80
2022/12/10 04:29:36;;;;;;;38.15;22.70;;;1.40;99.90;;;;;;5084237;28;20493;-79
2022/12/10 04:32:02;;;;;;;37.63;22.85;;;1.40;99.90;;;;;;5081171;28;20022;-80
2022/12/10 04:34:28;;;;;;;39.28;23.83;;;1.30;99.90;;;;;;5086052;28;20024;-80
2022/12/10 04:36:54;;;;;;;37.75;23.10;;;1.30;99.90;;;;;;5082472;28;20024;-80
2022/12/10 04:39:20;;;;;;;40.22;22.98;;;1.30;99.90;;;;;;5082178;28;20079;-80
2022/12/10 04:41:47;;;;;;;37.00;22.65;;;1.30;99.90;;;;;;5080827;28;20039;-80
2022/12/10 04:44:13;;;;;;;35.00;22.58;;;1.30;99.90;;;;;;5085305;28;20044;-80
2022/12/10 04:46:39;;;;;;;37.22;22.23;;;1.30;99.90;;;;;;5085533;28;20396;-80
2022/12/10 04:49:05;;;;;;;34.90;21.55;;;1.30;99.90;;;;;;5076465;28;20480;-80
2022/12/10 04:51:31;;;;;;;35.60;21.60;;;1.40;99.90;;;;;;5079837;28;20577;-80
2022/12/10 04:53:57;;;;;;;37.55;22.52;;;1.30;99.90;;;;;;5080912;28;20020;-80
2022/12/10 04:56:23;;;;;;;36.65;22.77;;;1.40;99.90;;;;;;5081009;28;20079;-79
2022/12/10 04:58:49;;;;;;;35.63;22.38;;;1.40;99.90;;;;;;5086343;28;20506;-79
2022/12/10 05:01:14;;;;;;;34.92;21.25;;;1.40;99.90;;;;;;5083583;28;20024;-79
2022/12/10 05:03:40;;;;;;;34.80;20.55;;;1.40;99.90;;;;;;5083777;28;20032;-80
2022/12/10 05:06:09;;;;;;;35.83;20.83;;;1.30;99.90;;;;;;5080010;28;20064;-79
2022/12/10 05:08:35;;;;;;;33.58;20.65;;;1.30;99.90;;;;;;5079919;28;21521;-80
2022/12/10 05:11:05;;;;;;;34.28;21.13;;;1.20;99.90;;;;;;5083607;28;20024;-80
2022/12/10 05:13:31;;;;;;;35.80;21.75;;;1.10;99.90;;;;;;5074233;28;20569;-79
2022/12/10 05:15:57;;;;;;;35.95;21.50;;;1.00;99.90;;;;;;5074036;28;20028;-80
2022/12/10 05:18:23;;;;;;;34.25;21.50;;;0.90;99.90;;;;;;5086005;28;20055;-80
2022/12/10 05:20:49;;;;;;;35.97;22.45;;;0.90;99.90;;;;;;5085147;28;20111;-80
2022/12/10 05:23:29;;;;;;;36.28;22.40;;;0.80;99.90;;;;;;5084768;28;20024;-80
2022/12/10 05:25:58;;;;;;;40.10;23.92;;;0.70;99.90;;;;;;5082214;28;20021;-80
2022/12/10 05:28:24;;;;;;;37.25;22.48;;;0.70;99.90;;;;;;5082841;28;20448;-80
2022/12/10 05:30:50;;;;;;;37.15;22.80;;;0.60;99.90;;;;;;5084845;28;20024;-80
2022/12/10 05:33:16;;;;;;;44.28;25.40;;;0.60;99.90;;;;;;5086349;28;20032;-80
2022/12/10 05:35:42;;;;;;;44.25;26.00;;;0.60;99.90;;;;;;5078083;28;20042;-80
2022/12/10 05:38:07;;;;;;;42.00;25.70;;;0.60;99.90;;;;;;5083172;28;20105;-80
2022/12/10 05:40:39;;;;;;;41.38;25.58;;;0.60;99.90;;;;;;5083050;28;20062;-79
2022/12/10 05:43:04;;;;;;;41.42;24.13;;;0.60;99.90;;;;;;5082265;28;20020;-79
2022/12/10 05:45:32;;;;;;;42.00;25.33;;;0.60;99.90;;;;;;5079388;28;20502;-80
2022/12/10 05:47:58;;;;;;;38.92;23.13;;;0.80;99.90;;;;;;5079207;28;20028;-80
2022/12/10 05:50:24;;;;;;;38.92;23.25;;;0.90;99.90;;;;;;5082014;28;20028;-79
2022/12/10 05:52:51;;;;;;;37.47;22.30;;;1.00;99.90;;;;;;5084721;28;20367;-79
2022/12/10 05:55:16;;;;;;;40.03;23.13;;;1.10;99.90;;;;;;5083745;28;20042;-79
2022/12/10 05:57:42;;;;;;;36.88;22.65;;;1.20;99.90;;;;;;5082366;28;20040;-80
2022/12/10 06:00:08;;;;;;;38.25;22.65;;;1.20;99.90;;;;;;5079174;28;20027;-80
2022/12/10 06:02:34;;;;;;;38.88;22.75;;;1.30;99.90;;;;;;5079521;28;20043;-80
2022/12/10 06:05:00;;;;;;;37.30;22.52;;;1.30;99.90;;;;;;5084239;28;20071;-80
2022/12/10 06:07:25;;;;;;;38.10;22.75;;;1.30;99.90;;;;;;5079140;28;20039;-80
2022/12/10 06:09:51;;;;;;;40.35;23.48;;;1.30;99.90;;;;;;5076261;28;20554;-80
2022/12/10 06:12:17;;;;;;;40.08;22.83;;;1.30;99.90;;;;;;5077598;28;20024;-80
2022/12/10 06:14:42;;;;;;;37.13;22.35;;;1.30;99.90;;;;;;5072331;28;20454;-80
2022/12/10 06:17:08;;;;;;;34.08;21.33;;;1.30;99.90;;;;;;5078118;28;20032;-80
2022/12/10 06:19:34;;;;;;;35.22;22.33;;;1.30;99.90;;;;;;5072684;28;20129;-80
2022/12/10 06:21:59;;;;;;;37.83;22.55;;;1.40;99.90;;;;;;5077872;28;20051;-79
2022/12/10 06:24:25;;;;;;;38.25;22.25;;;1.40;99.90;;;;;;5081478;28;20071;-79
2022/12/10 06:26:51;;;;;;;34.45;21.83;;;1.30;99.90;;;;;;5084818;28;20024;-79
2022/12/10 06:29:17;;;;;;;39.63;22.67;;;1.30;99.90;;;;;;5081105;28;20028;-80
2022/12/10 06:31:43;;;;;;;37.45;23.40;;;1.30;99.90;;;;;;5077373;28;20024;-79
2022/12/10 06:34:08;;;;;;;38.40;22.40;;;1.30;99.90;;;;;;5084995;28;20031;-80
2022/12/10 06:36:34;;;;;;;35.47;22.25;;;1.30;99.90;;;;;;5086314;28;20032;-80
2022/12/10 06:39:00;;;;;;;39.15;23.65;;;1.30;99.90;;;;;;5084238;28;20028;-79
2022/12/10 06:41:25;;;;;;;43.45;24.42;;;1.30;99.90;;;;;;5073538;28;20054;-80
2022/12/10 06:43:51;;;;;;;41.70;24.13;;;1.30;99.90;;;;;;5081188;28;20036;-79
2022/12/10 06:46:19;;;;;;;43.75;25.15;;;1.40;99.90;;;;;;5080614;28;20020;-80
2022/12/10 06:48:45;;;;;;;42.78;24.10;;;1.40;99.90;;;;;;5076464;28;20024;-80
2022/12/10 06:51:12;;;;;;;44.85;25.92;;;1.40;99.90;;;;;;5079555;28;20031;-80
2022/12/10 06:53:39;;;;;;;41.63;25.02;;;1.40;99.90;;;;;;5072460;28;20051;-80
2022/12/10 06:56:06;;;;;;;44.25;25.48;;;1.40;99.90;;;;;;5080315;28;20031;-80
2022/12/10 06:58:33;;;;;;;44.92;26.42;;;1.40;99.90;;;;;;5084678;28;20130;-80
2022/12/10 07:01:06;;;;;;;46.75;27.23;;;1.40;99.90;;;;;;5077717;28;20035;-80
2022/12/10 07:03:32;;;;;;;43.42;25.73;;;1.30;99.90;;;;;;5069082;28;20028;-80
2022/12/10 07:06:00;;;;;;;45.40;25.98;;;1.30;99.90;;;;;;5081537;28;20478;-80
2022/12/10 07:08:26;;;;;;;44.25;25.85;;;1.30;99.90;;;;;;5080013;28;20020;-80
2022/12/10 07:10:52;;;;;;;43.85;25.77;;;1.20;99.90;;;;;;5085499;28;20505;-80
2022/12/10 07:13:17;;;;;;;44.67;25.83;;;1.30;99.90;;;;;;5077807;28;20012;-80
2022/12/10 07:15:43;;;;;;;45.28;25.80;;;1.20;99.90;;;;;;5080180;28;20283;-80
2022/12/10 07:18:09;;;;;;;47.00;26.20;;;1.20;99.90;;;;;;5077505;28;20024;-80
2022/12/10 07:20:34;;;;;;;42.78;25.33;;;1.20;99.90;;;;;;5086377;28;20025;-80
2022/12/10 07:23:00;;;;;;;45.20;25.63;;;1.20;99.90;;;;;;5078682;28;20012;-80
2022/12/10 07:25:26;;;;;;;43.63;26.05;;;1.10;99.90;;;;;;4370528;28;10000830;-80
2022/12/10 07:27:51;;;;;;;45.50;26.65;;;1.10;99.90;;;;;;5068218;28;20017;-80
2022/12/10 07:30:17;;;;;;;50.00;27.77;;;1.00;99.90;;;;;;5069623;28;20558;-80
2022/12/10 07:32:43;;;;;;;50.30;27.75;;;1.00;99.90;;;;;;5075640;28;20028;-80
2022/12/10 07:35:08;;;;;;;51.28;29.30;;;1.10;99.90;;;;;;5072370;28;20088;-80
2022/12/10 07:37:34;;;;;;;49.63;27.52;;;1.10;99.90;;;;;;5080905;28;20063;-80
2022/12/10 07:39:59;;;;;;;47.38;26.67;;;1.10;99.90;;;;;;5072667;28;20016;-80
2022/12/10 07:42:25;;;;;;;50.83;28.65;;;1.20;99.90;;;;;;5075322;28;20032;-80
2022/12/10 07:44:51;;;;;;;50.45;28.48;;;1.20;99.90;;;;;;5072578;28;20087;-80
2022/12/10 07:47:17;;;;;;;53.20;28.90;;;1.20;99.90;;;;;;5063815;28;20052;-80
2022/12/10 07:49:42;;;;;;;51.20;28.30;;;1.20;99.90;;;;;;5065325;28;20303;-80
2022/12/10 07:52:08;;;;;;;48.80;26.73;;;1.20;99.90;;;;;;5080187;28;20483;-80
2022/12/10 07:54:34;;;;;;;48.50;27.55;;;1.30;99.90;;;;;;5074943;28;20751;-80
2022/12/10 07:57:00;;;;;;;53.17;29.63;;;1.20;99.90;;;;;;5075479;28;20047;-79
2022/12/10 07:59:26;;;;;;;57.97;31.25;;;;;;;;;;5075607;28;20037;-81
2022/12/10 08:01:52;;;;;;;55.85;30.77;;;;;;;;;;5079228;28;20035;-81
2022/12/10 08:04:18;;;;;;;55.08;29.67;;;;;;;;;;5075335;28;20029;-81
2022/12/10 08:06:44;;;;;;;59.22;31.05;;;;;;;;;;5081205;28;20389;-82
2022/12/10 08:09:11;;;;;;;61.95;32.28;;;1.10;99.90;;;;;;5073629;28;20366;-82
2022/12/10 08:11:36;;;;;;;72.93;37.17;;;1.00;99.90;;;;;;5073200;28;20036;-82
2022/12/10 08:14:02;;;;;;;70.45;36.08;;;0.90;99.90;;;;;;5081991;28;20032;-82
2022/12/10 08:16:30;;;;;;;66.05;33.75;;;0.80;99.90;;;;;;5073248;28;20028;-82
2022/12/10 08:18:58;;;;;;;64.43;32.95;;;0.70;99.90;;;;;;5084057;28;20028;-82
2022/12/10 08:21:29;;;;;;;62.47;32.38;;;0.70;99.90;;;;;;5080141;28;20062;-82
2022/12/10 08:23:55;;;;;;;59.00;31.02;;;0.70;99.90;;;;;;5085855;28;20032;-82
2022/12/10 08:26:24;;;;;;;59.38;30.63;;;0.70;99.90;;;;;;5079039;28;20036;-82
2022/12/10 08:28:51;;;;;;;61.80;32.00;;;0.70;99.90;;;;;;5086495;28;20016;-82
2022/12/10 08:31:19;;;;;;;65.90;31.63;;;0.70;99.90;;;;;;5080654;28;20024;-82
2022/12/10 08:33:45;;;;;;;64.20;31.08;;;0.70;99.90;;;;;;5070587;28;20056;-82
2022/12/10 08:36:13;;;;;;;64.18;31.55;;;0.70;99.90;;;;;;5080290;28;20059;-82
2022/12/10 08:38:40;;;;;;;65.78;32.45;;;0.70;99.90;;;;;;5081527;28;20027;-82
2022/12/10 08:41:11;;;;;;;63.92;31.40;;;0.60;99.90;;;;;;5084487;28;20040;-82
2022/12/10 08:43:37;;;;;;;63.22;30.52;;;0.60;99.90;;;;;;5077641;28;20660;-82
2022/12/10 08:46:03;;;;;;;61.75;30.60;;;0.60;99.90;;;;;;5082107;28;20038;-82
2022/12/10 08:48:29;;;;;;;67.00;30.83;;;0.50;99.90;;;;;;5079089;28;20120;-82
2022/12/10 08:50:55;;;;;;;63.17;29.95;;;0.60;99.90;;;;;;5083358;28;20039;-82
2022/12/10 08:53:20;;;;;;;62.47;30.15;;;0.60;99.90;;;;;;5082686;28;20055;-82
2022/12/10 08:55:50;;;;;;;69.68;32.20;;;0.50;99.90;;;;;;5085282;28;20044;-82
2022/12/10 08:58:16;;;;;;;65.63;30.52;;;0.60;99.90;;;;;;5082542;28;20040;-81
2022/12/10 09:00:43;;;;;;;65.10;30.42;;;0.60;99.90;;;;;;5085211;28;21960;-82
2022/12/10 09:03:09;;;;;;;65.30;30.33;;;0.70;99.90;;;;;;5082370;28;20070;-82
2022/12/10 09:05:35;;;;;;;65.78;30.67;;;0.70;99.90;;;;;;5078411;28;20024;-82
2022/12/10 09:08:00;;;;;;;67.07;31.27;;;0.70;99.90;;;;;;5072712;28;20380;-82
2022/12/10 09:10:26;;;;;;;68.05;30.77;;;0.70;99.90;;;;;;5082381;28;20035;-81
2022/12/10 09:12:51;;;;;;;62.20;29.45;;;0.80;99.90;;;;;;5078548;28;20032;-82
2022/12/10 09:15:17;;;;;;;66.97;29.80;;;0.80;99.90;;;;;;5078009;28;20062;-82
2022/12/10 09:17:43;;;;;;;62.83;28.92;;;0.80;99.90;;;;;;5080263;28;20110;-82
2022/12/10 09:20:09;;;;;;;63.83;30.25;;;0.80;99.90;;;;;;5075066;28;20070;-81
2022/12/10 09:22:36;;;;;;;60.45;29.13;;;0.80;99.90;;;;;;5079778;28;20032;-81
2022/12/10 09:25:06;;;;;;;67.45;29.92;;;0.70;99.90;;;;;;5082745;28;20035;-82
2022/12/10 09:27:32;;;;;;;64.20;28.92;;;0.70;99.90;;;;;;5075206;28;20044;-82
2022/12/10 09:29:58;;;;;;;64.20;29.38;;;0.70;99.90;;;;;;5082346;28;20028;-82
2022/12/10 09:32:24;;;;;;;62.92;29.55;;;0.70;99.90;;;;;;5082101;28;20020;-82
2022/12/10 09:34:53;;;;;;;62.80;29.25;;;0.70;99.90;;;;;;5081132;28;20711;-82
2022/12/10 09:37:19;;;;;;;65.35;31.15;;;0.70;99.90;;;;;;5078155;28;20028;-82
2022/12/10 09:39:45;;;;;;;64.63;29.75;;;0.70;99.90;;;;;;5082550;28;20028;-82
2022/12/10 09:42:17;;;;;;;65.55;30.92;;;0.80;99.90;;;;;;5081500;28;20105;-82
2022/12/10 09:44:42;;;;;;;60.35;27.17;;;0.80;99.90;;;;;;5084679;28;20047;-82
2022/12/10 09:47:10;;;;;;;59.17;28.90;;;0.80;99.90;;;;;;5085065;28;20103;-82
2022/12/10 09:49:57;;;;;;;58.60;28.33;;;0.80;99.90;;;;;;5084248;28;20074;-82
2022/12/10 09:52:26;;;;;;;58.50;27.63;;;0.90;99.90;;;;;;5077609;28;20116;-81
2022/12/10 09:54:58;;;;;;;58.92;27.88;;;0.80;99.90;;;;;;5073207;28;20028;-79
2022/12/10 09:57:38;;;;;;;42.53;20.77;;;0.90;99.90;;;;;;5086619;28;20537;-82
2022/12/10 10:00:15;;;;;;;51.83;26.30;;;0.90;99.90;;;;;;5083160;28;20040;-82
2022/12/10 10:02:41;;;;;;;55.03;26.50;;;1.00;99.90;;;;;;5072935;28;20487;-82
2022/12/10 10:05:07;;;;;;;47.78;23.45;;;1.10;99.90;;;;;;5074092;28;20036;-81
2022/12/10 10:07:36;;;;;;;47.65;23.45;;;1.10;99.90;;;;;;5083282;28;20524;-81
2022/12/10 10:10:16;;;;;;;46.70;23.40;;;1.20;99.90;;;;;;5078334;28;20020;-82
2022/12/10 10:12:42;;;;;;;45.72;22.83;;;1.20;99.90;;;;;;5082676;28;20028;-81
2022/12/10 10:15:21;;;;;;;41.55;22.20;;;;;;;;;;5076610;28;20028;-75
2022/12/10 10:17:49;;;;;;;41.10;21.05;;;;;;;;;;5067083;28;20063;-75
2022/12/10 10:20:15;;;;;;;48.38;23.90;;;;;;;;;;5075799;28;20136;-75
2022/12/10 10:22:42;;;;;;;46.65;23.27;;;;;;;;;;5078545;28;20493;-75
2022/12/10 10:25:19;;;;;;;48.97;24.83;;;1.50;99.90;;;;;;5079617;28;20039;-73
2022/12/10 10:27:45;;;;;;;50.80;24.73;;;1.40;99.90;;;;;;5081898;28;20130;-72
2022/12/10 10:30:20;;;;;;;49.70;24.73;;;1.40;99.90;;;;;;5085581;28;20115;-72
2022/12/10 10:32:49;;;;;;;49.85;24.95;;;1.40;99.90;;;;;;5078427;28;20035;-73
2022/12/10 10:35:53;;;;;;;56.10;26.58;;;1.40;99.90;;;;;;5077932;28;20106;-73
2022/12/10 10:38:25;;;;;;;50.50;25.23;;;1.50;99.90;;;;;;5074463;28;20024;-72
2022/12/10 10:40:57;;;;;;;50.33;24.98;;;1.60;99.90;;;;;;5080628;28;20035;-73
2022/12/10 10:43:31;;;;;;;48.70;25.40;;;1.50;99.90;;;;;;5080818;28;20040;-72
2022/12/10 10:46:01;;;;;;;47.65;24.08;;;1.50;99.90;;;;;;5086272;28;20030;-73
2022/12/10 10:48:28;;;;;;;54.00;26.40;;;1.50;99.90;;;;;;5075884;28;20027;-73
2022/12/10 10:51:04;;;;;;;45.08;24.17;;;1.60;99.90;;;;;;5081176;28;20246;-74
2022/12/10 10:53:41;;;;;;;46.72;23.70;;;1.60;99.90;;;;;;5073641;28;20036;-72
2022/12/10 10:56:22;;;;;;;46.70;24.00;;;1.60;99.90;;;;;;5076218;28;20024;-74
2022/12/10 10:59:01;;;;;;;44.08;22.98;;;1.60;99.90;;;;;;5083457;28;20047;-74
2022/12/10 11:01:51;;;;;;;45.25;22.98;;;1.70;99.90;;;;;;5086596;28;20028;-74
2022/12/10 11:04:25;;;;;;;48.55;23.42;;;1.60;99.90;;;;;;5077609;28;20076;-73
2022/12/10 11:06:56;;;;;;;43.05;22.25;;;1.60;99.90;;;;;;5064205;28;20028;-77
2022/12/10 11:09:27;;;;;;;43.80;21.95;;;1.80;99.90;;;;;;5078647;28;20573;-76
2022/12/10 11:12:04;;;;;;;42.00;21.50;;;;;;;;;;5079248;28;20086;-75
2022/12/10 11:14:43;;;;;;;43.47;22.05;;;1.80;99.90;;;;;;5077504;28;20032;-76
2022/12/10 11:17:19;;;;;;;39.70;21.55;;;1.80;99.90;;;;;;5083994;28;20749;-76
2022/12/10 11:20:00;;;;;;;42.70;21.50;;;1.80;99.90;;;;;;5080624;28;20063;-75
2022/12/10 11:22:32;;;;;;;41.67;20.80;;;1.80;99.90;;;;;;5077486;28;20190;-77
2022/12/10 11:24:59;;;;;;;49.13;24.90;;;1.80;99.90;;;;;;5078807;28;20039;-77
2022/12/10 11:28:00;;;;;;;50.70;26.15;;;1.70;99.90;;;;;;5078359;28;22993;-77
2022/12/10 11:30:26;;;;;;;50.60;24.67;;;1.60;99.90;;;;;;5081047;28;20071;-76
2022/12/10 11:33:16;;;;;;;46.83;24.45;;;1.50;99.90;;;;;;5078720;28;20613;-77
2022/12/10 11:35:46;;;;;;;46.92;23.65;;;1.50;99.90;;;;;;5072974;28;20058;-76
2022/12/10 11:38:24;;;;;;;50.63;24.48;;;1.40;99.90;;;;;;5083685;28;20054;-76
2022/12/10 11:41:07;;;;;;;48.65;23.52;;;1.40;99.90;;;;;;5091057;28;20062;-76
2022/12/10 11:43:43;;;;;;;45.58;23.88;;;1.30;99.90;;;;;;5079104;28;20449;-76
2022/12/10 11:46:11;;;;;;;45.17;23.35;;;1.20;99.90;;;;;;5088405;28;20107;-76
2022/12/10 11:48:55;;;;;;;44.97;22.98;;;1.10;99.90;;;;;;5082325;28;20020;-77
2022/12/10 11:52:05;;;;;;;50.92;26.58;;;1.10;99.90;;;;;;5081982;28;20375;-76
2022/12/10 11:54:48;;;;;;;44.55;23.02;;;1.10;99.90;;;;;;5075913;28;20036;-76
2022/12/10 11:57:26;;;;;;;42.80;22.58;;;1.20;99.90;;;;;;5083150;28;20420;-76
2022/12/10 12:00:11;;;;;;;41.45;22.20;;;1.20;99.90;;;;;;5079473;28;20028;-76
2022/12/10 12:02:55;;;;;;;43.13;22.77;;;1.20;99.90;;;;;;5076986;28;20031;-76
2022/12/10 12:05:41;;;;;;;41.70;22.25;;;1.20;99.90;;;;;;5086416;28;20478;-76
2022/12/10 12:08:39;;;;;;;39.75;21.42;;;1.30;99.90;;;;;;5089402;28;20044;-76
2022/12/10 12:11:16;;;;;;;40.20;20.75;;;1.20;99.90;;;;;;5082718;28;20024;-77
2022/12/10 12:13:59;;;;;;;37.00;21.05;;;1.10;99.90;;;;;;5083422;28;20047;-76
2022/12/10 12:16:43;;;;;;;29.83;16.13;;;1.10;99.90;;;;;;5086815;28;20598;-77
2022/12/10 12:19:34;;;;;;;40.13;22.48;;;1.10;99.90;;;;;;5081883;28;20089;-76
2022/12/10 12:22:06;;;;;;;37.15;21.42;;;1.10;99.90;;;;;;5080054;28;20063;-77
2022/12/10 12:24:37;;;;;;;41.25;22.05;;;1.10;99.90;;;;;;5084054;28;20115;-77
2022/12/10 12:27:29;;;;;;;38.55;20.48;;;1.10;99.90;;;;;;5084256;28;20109;-76
2022/12/10 12:30:01;;;;;;;34.17;19.08;;;1.10;99.90;;;;;;5061191;28;20028;-76
2022/12/10 12:32:31;;;;;;;35.65;19.85;;;1.10;99.90;;;;;;5080224;28;20478;-76
2022/12/10 12:35:02;;;;;;;33.33;18.48;;;1.10;99.90;;;;;;5074731;28;20063;-76
2022/12/10 12:37:56;;;;;;;29.40;16.48;;;1.20;99.90;;;;;;5084446;28;20088;-77
2022/12/10 12:40:35;;;;;;;27.05;15.35;;;1.40;99.90;;;;;;5081659;28;20031;-77
2022/12/10 12:43:43;;;;;;;26.65;15.80;;;1.50;99.90;;;;;;5086309;28;20146;-77
2022/12/10 12:46:39;;;;;;;25.98;15.13;;;1.60;99.90;;;;;;5003060;28;20041;-77
2022/12/10 12:49:11;;;;;;;24.65;14.07;;;;;;;;;;5079792;28;20028;-80
2022/12/10 12:51:42;;;;;;;18.33;10.98;;;;;;;;;;4344924;28;10001163;-83
2022/12/10 12:54:11;;;;;;;26.35;14.75;;;2.10;99.90;;;;;;5020724;28;20072;-79
2022/12/10 12:56:55;;;;;;;25.50;14.57;;;2.00;99.90;;;;;;5022971;28;20043;-81
2022/12/10 12:59:36;;;;;;;22.75;13.48;;;2.00;99.90;;;;;;5029928;28;20057;-84
2022/12/10 13:02:46;;;;;;;25.05;13.85;;;2.00;99.90;;;;;;5037518;28;20091;-85
2022/12/10 13:05:20;;;;;;;23.38;12.57;;;2.10;99.90;;;;;;5005081;28;20538;-80
2022/12/10 13:08:15;;;;;;;23.88;13.55;;;2.10;99.90;;;;;;5027781;28;20052;-81